sensor_id;sensor_type;location;lat;lon;timestamp;P1;durP1;ratioP1;P2;durP2;ratioP2
8423;SDS011;4249;49.072;9.770;2022-11-27T00:02:35;28.67;;;16.07;;
8423;SDS011;4249;49.072;9.770;2022-11-27T00:05:22;22.30;;;15.67;;
8423;SDS011;4249;49.072;9.770;2022-11-27T00:08:09;20.57;;;15.17;;
8423;SDS011;4249;49.072;9.770;2022-11-27T00:11:02;19.30;;;14.77;;
8423;SDS011;4249;49.072;9.770;2022-11-27T00:13:51;22.47;;;15.07;;
8423;SDS011;4249;49.072;9.770;2022-11-27T00:16:38;19.33;;;15.13;;
8423;SDS011;4249;49.072;9.770;2022-11-27T00:19:25;19.87;;;14.50;;
8423;SDS011;4249;49.072;9.770;2022-11-27T00:22:13;26.03;;;16.13;;
8423;SDS011;4249;49.072;9.770;2022-11-27T00:25:00;26.80;;;16.53;;
8423;SDS011;4249;49.072;9.770;2022-11-27T00:27:49;24.23;;;16.50;;
8423;SDS011;4249;49.072;9.770;2022-11-27T00:30:36;24.70;;;15.27;;
8423;SDS011;4249;49.072;9.770;2022-11-27T00:33:25;25.87;;;16.03;;
8423;SDS011;4249;49.072;9.770;2022-11-27T00:36:12;22.57;;;15.37;;
8423;SDS011;4249;49.072;9.770;2022-11-27T00:39:00;28.07;;;15.13;;
8423;SDS011;4249;49.072;9.770;2022-11-27T00:41:47;23.70;;;14.67;;
8423;SDS011;4249;49.072;9.770;2022-11-27T00:44:36;20.77;;;13.60;;
8423;SDS011;4249;49.072;9.770;2022-11-27T00:47:23;13.97;;;10.23;;
8423;SDS011;4249;49.072;9.770;2022-11-27T00:50:10;12.67;;;9.30;;
8423;SDS011;4249;49.072;9.770;2022-11-27T00:52:58;18.27;;;10.03;;
8423;SDS011;4249;49.072;9.770;2022-11-27T00:55:45;12.43;;;9.87;;
8423;SDS011;4249;49.072;9.770;2022-11-27T00:58:32;15.03;;;10.03;;
8423;SDS011;4249;49.072;9.770;2022-11-27T01:01:22;14.07;;;10.77;;
8423;SDS011;4249;49.072;9.770;2022-11-27T01:04:11;24.37;;;13.83;;
8423;SDS011;4249;49.072;9.770;2022-11-27T01:06:59;20.60;;;12.93;;
8423;SDS011;4249;49.072;9.770;2022-11-27T01:09:46;19.77;;;14.07;;
8423;SDS011;4249;49.072;9.770;2022-11-27T01:12:34;23.37;;;14.50;;
8423;SDS011;4249;49.072;9.770;2022-11-27T01:15:21;23.23;;;14.80;;
8423;SDS011;4249;49.072;9.770;2022-11-27T01:18:09;21.27;;;13.43;;
8423;SDS011;4249;49.072;9.770;2022-11-27T01:20:57;17.03;;;12.33;;
8423;SDS011;4249;49.072;9.770;2022-11-27T01:23:45;18.00;;;12.57;;
8423;SDS011;4249;49.072;9.770;2022-11-27T01:26:33;13.80;;;11.23;;
8423;SDS011;4249;49.072;9.770;2022-11-27T01:29:20;15.47;;;11.47;;
8423;SDS011;4249;49.072;9.770;2022-11-27T01:32:07;16.03;;;11.83;;
8423;SDS011;4249;49.072;9.770;2022-11-27T01:34:56;14.00;;;10.83;;
8423;SDS011;4249;49.072;9.770;2022-11-27T01:37:43;14.50;;;10.40;;
8423;SDS011;4249;49.072;9.770;2022-11-27T01:40:30;15.17;;;10.77;;
8423;SDS011;4249;49.072;9.770;2022-11-27T01:46:26;13.40;;;10.63;;
8423;SDS011;4249;49.072;9.770;2022-11-27T01:49:21;14.33;;;10.63;;
8423;SDS011;4249;49.072;9.770;2022-11-27T01:52:13;14.90;;;10.57;;
8423;SDS011;4249;49.072;9.770;2022-11-27T01:55:04;14.10;;;10.97;;
8423;SDS011;4249;49.072;9.770;2022-11-27T01:57:55;16.43;;;11.17;;
8423;SDS011;4249;49.072;9.770;2022-11-27T02:00:45;13.00;;;10.63;;
8423;SDS011;4249;49.072;9.770;2022-11-27T02:03:32;17.17;;;10.97;;
8423;SDS011;4249;49.072;9.770;2022-11-27T02:06:19;15.97;;;10.80;;
8423;SDS011;4249;49.072;9.770;2022-11-27T02:09:08;13.67;;;10.50;;
8423;SDS011;4249;49.072;9.770;2022-11-27T02:11:57;14.77;;;10.30;;
8423;SDS011;4249;49.072;9.770;2022-11-27T02:14:53;12.40;;;9.63;;
8423;SDS011;4249;49.072;9.770;2022-11-27T02:17:46;15.87;;;11.37;;
8423;SDS011;4249;49.072;9.770;2022-11-27T02:20:43;19.03;;;12.00;;
8423;SDS011;4249;49.072;9.770;2022-11-27T02:27:09;18.87;;;12.97;;
8423;SDS011;4249;49.072;9.770;2022-11-27T02:30:09;19.50;;;13.10;;
8423;SDS011;4249;49.072;9.770;2022-11-27T02:32:57;18.23;;;12.17;;
8423;SDS011;4249;49.072;9.770;2022-11-27T02:35:47;16.43;;;11.73;;
8423;SDS011;4249;49.072;9.770;2022-11-27T02:38:38;16.67;;;11.00;;
8423;SDS011;4249;49.072;9.770;2022-11-27T02:41:29;16.27;;;10.40;;
8423;SDS011;4249;49.072;9.770;2022-11-27T02:44:20;14.90;;;10.70;;
8423;SDS011;4249;49.072;9.770;2022-11-27T02:47:10;16.03;;;11.17;;
8423;SDS011;4249;49.072;9.770;2022-11-27T02:49:59;17.37;;;11.10;;
8423;SDS011;4249;49.072;9.770;2022-11-27T02:52:48;17.73;;;11.73;;
8423;SDS011;4249;49.072;9.770;2022-11-27T02:55:37;16.33;;;10.47;;
8423;SDS011;4249;49.072;9.770;2022-11-27T02:58:27;18.00;;;10.00;;
8423;SDS011;4249;49.072;9.770;2022-11-27T03:01:15;15.87;;;10.50;;
8423;SDS011;4249;49.072;9.770;2022-11-27T03:04:07;14.30;;;10.67;;
8423;SDS011;4249;49.072;9.770;2022-11-27T03:06:58;16.23;;;10.07;;
8423;SDS011;4249;49.072;9.770;2022-11-27T03:09:50;14.13;;;9.63;;
8423;SDS011;4249;49.072;9.770;2022-11-27T03:12:43;13.20;;;10.13;;
8423;SDS011;4249;49.072;9.770;2022-11-27T03:15:33;14.20;;;10.07;;
8423;SDS011;4249;49.072;9.770;2022-11-27T03:18:29;15.70;;;10.67;;
8423;SDS011;4249;49.072;9.770;2022-11-27T03:21:24;16.00;;;10.03;;
8423;SDS011;4249;49.072;9.770;2022-11-27T03:24:14;13.10;;;9.00;;
8423;SDS011;4249;49.072;9.770;2022-11-27T03:27:02;13.63;;;9.70;;
8423;SDS011;4249;49.072;9.770;2022-11-27T03:29:50;13.97;;;9.33;;
8423;SDS011;4249;49.072;9.770;2022-11-27T03:32:40;14.77;;;9.73;;
8423;SDS011;4249;49.072;9.770;2022-11-27T03:35:27;12.57;;;9.17;;
8423;SDS011;4249;49.072;9.770;2022-11-27T03:38:17;14.30;;;10.13;;
8423;SDS011;4249;49.072;9.770;2022-11-27T03:41:05;14.63;;;9.50;;
8423;SDS011;4249;49.072;9.770;2022-11-27T03:44:00;14.80;;;9.87;;
8423;SDS011;4249;49.072;9.770;2022-11-27T03:46:54;13.87;;;9.63;;
8423;SDS011;4249;49.072;9.770;2022-11-27T03:49:53;12.83;;;10.00;;
8423;SDS011;4249;49.072;9.770;2022-11-27T03:52:53;12.53;;;9.30;;
8423;SDS011;4249;49.072;9.770;2022-11-27T03:55:51;12.77;;;9.13;;
8423;SDS011;4249;49.072;9.770;2022-11-27T03:58:43;13.00;;;9.73;;
8423;SDS011;4249;49.072;9.770;2022-11-27T04:01:34;13.00;;;10.03;;
8423;SDS011;4249;49.072;9.770;2022-11-27T04:04:22;14.33;;;10.27;;
8423;SDS011;4249;49.072;9.770;2022-11-27T04:07:10;14.83;;;9.57;;
8423;SDS011;4249;49.072;9.770;2022-11-27T04:10:02;13.73;;;9.40;;
8423;SDS011;4249;49.072;9.770;2022-11-27T04:12:51;16.53;;;10.20;;
8423;SDS011;4249;49.072;9.770;2022-11-27T04:15:38;14.23;;;10.30;;
8423;SDS011;4249;49.072;9.770;2022-11-27T04:18:25;13.67;;;10.00;;
8423;SDS011;4249;49.072;9.770;2022-11-27T04:21:12;17.57;;;10.40;;
8423;SDS011;4249;49.072;9.770;2022-11-27T04:24:01;16.63;;;11.60;;
8423;SDS011;4249;49.072;9.770;2022-11-27T04:26:48;14.67;;;9.70;;
8423;SDS011;4249;49.072;9.770;2022-11-27T04:29:36;14.97;;;9.57;;
8423;SDS011;4249;49.072;9.770;2022-11-27T04:32:23;16.20;;;10.87;;
8423;SDS011;4249;49.072;9.770;2022-11-27T04:35:11;14.13;;;10.03;;
8423;SDS011;4249;49.072;9.770;2022-11-27T04:37:58;16.03;;;10.50;;
8423;SDS011;4249;49.072;9.770;2022-11-27T04:40:45;16.13;;;9.93;;
8423;SDS011;4249;49.072;9.770;2022-11-27T04:43:32;14.70;;;9.73;;
8423;SDS011;4249;49.072;9.770;2022-11-27T04:46:21;14.77;;;9.77;;
8423;SDS011;4249;49.072;9.770;2022-11-27T04:49:08;12.30;;;9.80;;
8423;SDS011;4249;49.072;9.770;2022-11-27T04:51:55;16.63;;;9.70;;
8423;SDS011;4249;49.072;9.770;2022-11-27T04:54:43;14.17;;;9.70;;
8423;SDS011;4249;49.072;9.770;2022-11-27T04:57:30;13.43;;;9.30;;
8423;SDS011;4249;49.072;9.770;2022-11-27T05:00:23;13.10;;;9.73;;
8423;SDS011;4249;49.072;9.770;2022-11-27T05:03:13;13.63;;;8.70;;
8423;SDS011;4249;49.072;9.770;2022-11-27T05:06:00;12.90;;;8.43;;
8423;SDS011;4249;49.072;9.770;2022-11-27T05:08:47;13.33;;;8.27;;
8423;SDS011;4249;49.072;9.770;2022-11-27T05:11:34;13.87;;;9.37;;
8423;SDS011;4249;49.072;9.770;2022-11-27T05:14:22;10.73;;;8.70;;
8423;SDS011;4249;49.072;9.770;2022-11-27T05:17:13;14.07;;;9.60;;
8423;SDS011;4249;49.072;9.770;2022-11-27T05:20:02;14.30;;;8.80;;
8423;SDS011;4249;49.072;9.770;2022-11-27T05:22:50;14.77;;;9.77;;
8423;SDS011;4249;49.072;9.770;2022-11-27T05:25:38;14.90;;;10.33;;
8423;SDS011;4249;49.072;9.770;2022-11-27T05:28:25;14.30;;;9.17;;
8423;SDS011;4249;49.072;9.770;2022-11-27T05:31:13;14.93;;;10.03;;
8423;SDS011;4249;49.072;9.770;2022-11-27T05:34:00;14.50;;;9.40;;
8423;SDS011;4249;49.072;9.770;2022-11-27T05:36:48;14.10;;;9.47;;
8423;SDS011;4249;49.072;9.770;2022-11-27T05:39:36;14.47;;;8.73;;
8423;SDS011;4249;49.072;9.770;2022-11-27T05:42:23;13.20;;;9.03;;
8423;SDS011;4249;49.072;9.770;2022-11-27T05:45:10;13.17;;;9.17;;
8423;SDS011;4249;49.072;9.770;2022-11-27T05:47:57;14.30;;;9.20;;
8423;SDS011;4249;49.072;9.770;2022-11-27T05:50:45;13.27;;;9.50;;
8423;SDS011;4249;49.072;9.770;2022-11-27T05:53:33;13.70;;;9.03;;
8423;SDS011;4249;49.072;9.770;2022-11-27T05:56:21;13.83;;;8.00;;
8423;SDS011;4249;49.072;9.770;2022-11-27T05:59:08;15.03;;;10.27;;
8423;SDS011;4249;49.072;9.770;2022-11-27T06:01:56;10.93;;;8.27;;
8423;SDS011;4249;49.072;9.770;2022-11-27T06:04:44;14.37;;;9.63;;
8423;SDS011;4249;49.072;9.770;2022-11-27T06:07:31;12.13;;;8.37;;
8423;SDS011;4249;49.072;9.770;2022-11-27T06:10:19;13.13;;;8.47;;
8423;SDS011;4249;49.072;9.770;2022-11-27T06:13:06;11.97;;;8.17;;
8423;SDS011;4249;49.072;9.770;2022-11-27T06:15:54;12.50;;;8.37;;
8423;SDS011;4249;49.072;9.770;2022-11-27T06:18:41;11.50;;;8.33;;
8423;SDS011;4249;49.072;9.770;2022-11-27T06:21:28;12.73;;;8.33;;
8423;SDS011;4249;49.072;9.770;2022-11-27T06:24:15;11.00;;;7.97;;
8423;SDS011;4249;49.072;9.770;2022-11-27T06:27:04;10.23;;;8.20;;
8423;SDS011;4249;49.072;9.770;2022-11-27T06:29:51;13.80;;;9.27;;
8423;SDS011;4249;49.072;9.770;2022-11-27T06:32:38;15.23;;;9.67;;
8423;SDS011;4249;49.072;9.770;2022-11-27T06:35:25;16.33;;;10.37;;
8423;SDS011;4249;49.072;9.770;2022-11-27T06:38:12;24.57;;;12.50;;
8423;SDS011;4249;49.072;9.770;2022-11-27T06:41:00;21.00;;;11.40;;
8423;SDS011;4249;49.072;9.770;2022-11-27T06:43:50;19.00;;;11.37;;
8423;SDS011;4249;49.072;9.770;2022-11-27T06:46:38;15.53;;;10.83;;
8423;SDS011;4249;49.072;9.770;2022-11-27T06:49:25;15.63;;;9.80;;
8423;SDS011;4249;49.072;9.770;2022-11-27T06:52:12;17.43;;;10.63;;
8423;SDS011;4249;49.072;9.770;2022-11-27T06:54:59;19.60;;;10.20;;
8423;SDS011;4249;49.072;9.770;2022-11-27T06:57:48;15.67;;;10.03;;
8423;SDS011;4249;49.072;9.770;2022-11-27T07:00:38;19.33;;;10.50;;
8423;SDS011;4249;49.072;9.770;2022-11-27T07:03:25;19.13;;;11.00;;
8423;SDS011;4249;49.072;9.770;2022-11-27T07:06:14;22.43;;;13.67;;
8423;SDS011;4249;49.072;9.770;2022-11-27T07:09:04;23.10;;;13.53;;
8423;SDS011;4249;49.072;9.770;2022-11-27T07:11:52;23.90;;;13.97;;
8423;SDS011;4249;49.072;9.770;2022-11-27T07:14:39;23.73;;;14.40;;
8423;SDS011;4249;49.072;9.770;2022-11-27T07:17:28;20.53;;;13.03;;
8423;SDS011;4249;49.072;9.770;2022-11-27T07:20:15;18.97;;;12.57;;
8423;SDS011;4249;49.072;9.770;2022-11-27T07:23:02;24.57;;;14.03;;
8423;SDS011;4249;49.072;9.770;2022-11-27T07:25:50;22.07;;;13.07;;
8423;SDS011;4249;49.072;9.770;2022-11-27T07:28:37;19.90;;;13.30;;
8423;SDS011;4249;49.072;9.770;2022-11-27T07:31:25;22.87;;;13.70;;
8423;SDS011;4249;49.072;9.770;2022-11-27T07:34:15;17.37;;;11.57;;
8423;SDS011;4249;49.072;9.770;2022-11-27T07:37:03;18.17;;;11.27;;
8423;SDS011;4249;49.072;9.770;2022-11-27T07:39:50;22.67;;;13.90;;
8423;SDS011;4249;49.072;9.770;2022-11-27T07:42:37;22.67;;;12.93;;
8423;SDS011;4249;49.072;9.770;2022-11-27T07:45:24;20.73;;;12.50;;
8423;SDS011;4249;49.072;9.770;2022-11-27T07:48:11;17.87;;;11.97;;
8423;SDS011;4249;49.072;9.770;2022-11-27T07:51:00;20.37;;;11.33;;
8423;SDS011;4249;49.072;9.770;2022-11-27T07:53:47;37.33;;;27.90;;
8423;SDS011;4249;49.072;9.770;2022-11-27T07:56:36;26.80;;;17.33;;
8423;SDS011;4249;49.072;9.770;2022-11-27T07:59:23;26.33;;;13.47;;
8423;SDS011;4249;49.072;9.770;2022-11-27T08:02:10;33.60;;;24.90;;
8423;SDS011;4249;49.072;9.770;2022-11-27T08:04:48;25.80;;;16.57;;
8423;SDS011;4249;49.072;9.770;2022-11-27T08:07:16;20.97;;;14.53;;
8423;SDS011;4249;49.072;9.770;2022-11-27T08:09:43;23.10;;;14.07;;
8423;SDS011;4249;49.072;9.770;2022-11-27T08:12:10;21.50;;;15.00;;
8423;SDS011;4249;49.072;9.770;2022-11-27T08:14:37;22.53;;;14.47;;
8423;SDS011;4249;49.072;9.770;2022-11-27T08:17:04;27.30;;;16.60;;
8423;SDS011;4249;49.072;9.770;2022-11-27T08:19:31;28.87;;;16.77;;
8423;SDS011;4249;49.072;9.770;2022-11-27T08:21:58;23.93;;;15.80;;
8423;SDS011;4249;49.072;9.770;2022-11-27T08:24:26;22.80;;;15.73;;
8423;SDS011;4249;49.072;9.770;2022-11-27T08:26:53;26.53;;;16.47;;
8423;SDS011;4249;49.072;9.770;2022-11-27T08:29:21;26.33;;;17.50;;
8423;SDS011;4249;49.072;9.770;2022-11-27T08:31:47;15.23;;;10.87;;
8423;SDS011;4249;49.072;9.770;2022-11-27T08:34:33;13.23;;;9.20;;
8423;SDS011;4249;49.072;9.770;2022-11-27T08:37:20;17.50;;;10.77;;
8423;SDS011;4249;49.072;9.770;2022-11-27T08:40:09;15.03;;;10.90;;
8423;SDS011;4249;49.072;9.770;2022-11-27T08:42:57;20.33;;;12.87;;
8423;SDS011;4249;49.072;9.770;2022-11-27T08:45:44;23.10;;;16.37;;
8423;SDS011;4249;49.072;9.770;2022-11-27T08:48:31;18.27;;;13.10;;
8423;SDS011;4249;49.072;9.770;2022-11-27T08:51:19;16.03;;;11.40;;
8423;SDS011;4249;49.072;9.770;2022-11-27T08:54:06;15.40;;;11.20;;
8423;SDS011;4249;49.072;9.770;2022-11-27T08:56:55;17.10;;;12.50;;
8423;SDS011;4249;49.072;9.770;2022-11-27T08:59:42;16.27;;;11.50;;
8423;SDS011;4249;49.072;9.770;2022-11-27T09:02:29;20.10;;;14.63;;
8423;SDS011;4249;49.072;9.770;2022-11-27T09:05:16;20.73;;;14.43;;
8423;SDS011;4249;49.072;9.770;2022-11-27T09:08:04;21.50;;;14.43;;
8423;SDS011;4249;49.072;9.770;2022-11-27T09:10:51;25.00;;;16.03;;
8423;SDS011;4249;49.072;9.770;2022-11-27T09:13:40;23.30;;;16.80;;
8423;SDS011;4249;49.072;9.770;2022-11-27T09:16:28;24.33;;;16.40;;
8423;SDS011;4249;49.072;9.770;2022-11-27T09:19:15;20.37;;;14.33;;
8423;SDS011;4249;49.072;9.770;2022-11-27T09:22:02;17.97;;;12.97;;
8423;SDS011;4249;49.072;9.770;2022-11-27T09:24:49;20.77;;;14.50;;
8423;SDS011;4249;49.072;9.770;2022-11-27T09:27:37;14.73;;;11.07;;
8423;SDS011;4249;49.072;9.770;2022-11-27T09:30:25;14.07;;;9.90;;
8423;SDS011;4249;49.072;9.770;2022-11-27T09:33:12;14.40;;;11.07;;
8423;SDS011;4249;49.072;9.770;2022-11-27T09:36:02;17.63;;;12.97;;
8423;SDS011;4249;49.072;9.770;2022-11-27T09:38:51;14.37;;;11.10;;
8423;SDS011;4249;49.072;9.770;2022-11-27T09:41:41;18.33;;;12.50;;
8423;SDS011;4249;49.072;9.770;2022-11-27T09:44:33;16.60;;;12.20;;
8423;SDS011;4249;49.072;9.770;2022-11-27T09:47:27;15.50;;;11.50;;
8423;SDS011;4249;49.072;9.770;2022-11-27T09:50:18;15.33;;;11.23;;
8423;SDS011;4249;49.072;9.770;2022-11-27T09:53:11;17.87;;;12.00;;
8423;SDS011;4249;49.072;9.770;2022-11-27T09:56:09;23.93;;;16.23;;
8423;SDS011;4249;49.072;9.770;2022-11-27T09:58:59;27.70;;;18.20;;
8423;SDS011;4249;49.072;9.770;2022-11-27T10:01:48;27.23;;;18.10;;
8423;SDS011;4249;49.072;9.770;2022-11-27T10:04:37;24.90;;;16.43;;
8423;SDS011;4249;49.072;9.770;2022-11-27T10:07:27;23.53;;;15.60;;
8423;SDS011;4249;49.072;9.770;2022-11-27T10:10:25;27.73;;;17.17;;
8423;SDS011;4249;49.072;9.770;2022-11-27T10:13:27;46.27;;;24.20;;
8423;SDS011;4249;49.072;9.770;2022-11-27T10:16:25;59.17;;;30.23;;
8423;SDS011;4249;49.072;9.770;2022-11-27T10:19:21;24.87;;;16.73;;
8423;SDS011;4249;49.072;9.770;2022-11-27T10:22:18;19.70;;;13.27;;
8423;SDS011;4249;49.072;9.770;2022-11-27T10:25:10;21.03;;;15.47;;
8423;SDS011;4249;49.072;9.770;2022-11-27T10:28:07;18.70;;;13.30;;
8423;SDS011;4249;49.072;9.770;2022-11-27T10:31:01;18.60;;;13.67;;
8423;SDS011;4249;49.072;9.770;2022-11-27T10:33:55;18.73;;;12.50;;
8423;SDS011;4249;49.072;9.770;2022-11-27T10:36:46;16.90;;;12.67;;
8423;SDS011;4249;49.072;9.770;2022-11-27T10:39:37;13.57;;;11.50;;
8423;SDS011;4249;49.072;9.770;2022-11-27T10:42:31;22.00;;;15.80;;
8423;SDS011;4249;49.072;9.770;2022-11-27T10:45:23;17.83;;;13.93;;
8423;SDS011;4249;49.072;9.770;2022-11-27T10:48:14;18.30;;;12.27;;
8423;SDS011;4249;49.072;9.770;2022-11-27T10:51:02;18.47;;;11.90;;
8423;SDS011;4249;49.072;9.770;2022-11-27T10:53:56;16.87;;;10.97;;
8423;SDS011;4249;49.072;9.770;2022-11-27T10:56:53;15.00;;;11.60;;
8423;SDS011;4249;49.072;9.770;2022-11-27T10:59:59;16.63;;;12.00;;
8423;SDS011;4249;49.072;9.770;2022-11-27T11:02:58;13.80;;;9.77;;
8423;SDS011;4249;49.072;9.770;2022-11-27T11:05:53;16.27;;;11.87;;
8423;SDS011;4249;49.072;9.770;2022-11-27T11:08:43;15.63;;;11.07;;
8423;SDS011;4249;49.072;9.770;2022-11-27T11:11:32;14.97;;;11.27;;
8423;SDS011;4249;49.072;9.770;2022-11-27T11:14:21;13.47;;;10.30;;
8423;SDS011;4249;49.072;9.770;2022-11-27T11:17:14;14.47;;;12.20;;
8423;SDS011;4249;49.072;9.770;2022-11-27T11:20:11;19.90;;;12.50;;
8423;SDS011;4249;49.072;9.770;2022-11-27T11:23:00;14.53;;;10.73;;
8423;SDS011;4249;49.072;9.770;2022-11-27T11:25:48;16.77;;;11.60;;
8423;SDS011;4249;49.072;9.770;2022-11-27T11:28:40;13.47;;;10.43;;
8423;SDS011;4249;49.072;9.770;2022-11-27T11:31:36;14.63;;;9.63;;
8423;SDS011;4249;49.072;9.770;2022-11-27T11:34:25;15.40;;;9.70;;
8423;SDS011;4249;49.072;9.770;2022-11-27T11:37:20;10.77;;;6.57;;
8423;SDS011;4249;49.072;9.770;2022-11-27T11:40:19;4.57;;;3.63;;
8423;SDS011;4249;49.072;9.770;2022-11-27T11:43:20;3.93;;;3.23;;
8423;SDS011;4249;49.072;9.770;2022-11-27T11:46:17;7.87;;;5.97;;
8423;SDS011;4249;49.072;9.770;2022-11-27T11:49:14;9.43;;;7.03;;
8423;SDS011;4249;49.072;9.770;2022-11-27T11:52:14;7.23;;;5.20;;
8423;SDS011;4249;49.072;9.770;2022-11-27T11:55:12;6.80;;;4.07;;
8423;SDS011;4249;49.072;9.770;2022-11-27T12:01:22;4.00;;;2.60;;
8423;SDS011;4249;49.072;9.770;2022-11-27T12:07:42;2.40;;;2.20;;
8423;SDS011;4249;49.072;9.770;2022-11-27T12:10:45;8.03;;;4.13;;
8423;SDS011;4249;49.072;9.770;2022-11-27T12:13:43;21.07;;;11.53;;
8423;SDS011;4249;49.072;9.770;2022-11-27T12:16:43;9.70;;;6.67;;
8423;SDS011;4249;49.072;9.770;2022-11-27T12:19:41;8.37;;;5.30;;
8423;SDS011;4249;49.072;9.770;2022-11-27T12:22:54;9.57;;;5.80;;
8423;SDS011;4249;49.072;9.770;2022-11-27T12:26:06;4.60;;;3.10;;
8423;SDS011;4249;49.072;9.770;2022-11-27T12:32:39;6.27;;;4.00;;
8423;SDS011;4249;49.072;9.770;2022-11-27T12:35:42;3.33;;;2.33;;
8423;SDS011;4249;49.072;9.770;2022-11-27T12:38:41;3.77;;;3.03;;
8423;SDS011;4249;49.072;9.770;2022-11-27T12:41:44;9.10;;;5.30;;
8423;SDS011;4249;49.072;9.770;2022-11-27T12:44:52;11.03;;;7.17;;
8423;SDS011;4249;49.072;9.770;2022-11-27T12:47:46;2.40;;;2.20;;
8423;SDS011;4249;49.072;9.770;2022-11-27T12:50:39;2.20;;;1.90;;
8423;SDS011;4249;49.072;9.770;2022-11-27T12:53:30;2.00;;;1.80;;
8423;SDS011;4249;49.072;9.770;2022-11-27T12:56:24;5.57;;;2.90;;
8423;SDS011;4249;49.072;9.770;2022-11-27T12:59:15;10.23;;;6.23;;
8423;SDS011;4249;49.072;9.770;2022-11-27T13:02:11;7.97;;;4.33;;
8423;SDS011;4249;49.072;9.770;2022-11-27T13:05:09;14.70;;;9.33;;
8423;SDS011;4249;49.072;9.770;2022-11-27T13:08:03;3.87;;;2.80;;
8423;SDS011;4249;49.072;9.770;2022-11-27T13:10:55;5.27;;;3.13;;
8423;SDS011;4249;49.072;9.770;2022-11-27T13:13:49;7.97;;;3.97;;
8423;SDS011;4249;49.072;9.770;2022-11-27T13:16:41;26.83;;;16.33;;
8423;SDS011;4249;49.072;9.770;2022-11-27T13:19:31;7.20;;;4.43;;
8423;SDS011;4249;49.072;9.770;2022-11-27T13:22:26;6.43;;;4.20;;
8423;SDS011;4249;49.072;9.770;2022-11-27T13:25:18;8.93;;;4.20;;
8423;SDS011;4249;49.072;9.770;2022-11-27T13:28:05;4.93;;;3.07;;
8423;SDS011;4249;49.072;9.770;2022-11-27T13:30:53;2.87;;;2.30;;
8423;SDS011;4249;49.072;9.770;2022-11-27T13:33:45;2.90;;;2.33;;
8423;SDS011;4249;49.072;9.770;2022-11-27T13:36:35;2.43;;;2.10;;
8423;SDS011;4249;49.072;9.770;2022-11-27T13:39:26;3.17;;;1.90;;
8423;SDS011;4249;49.072;9.770;2022-11-27T13:42:17;2.07;;;1.87;;
8423;SDS011;4249;49.072;9.770;2022-11-27T13:45:07;2.30;;;2.10;;
8423;SDS011;4249;49.072;9.770;2022-11-27T13:48:15;2.53;;;2.20;;
8423;SDS011;4249;49.072;9.770;2022-11-27T13:51:11;2.80;;;2.40;;
8423;SDS011;4249;49.072;9.770;2022-11-27T13:54:10;2.33;;;2.13;;
8423;SDS011;4249;49.072;9.770;2022-11-27T13:57:13;2.83;;;2.20;;
8423;SDS011;4249;49.072;9.770;2022-11-27T14:00:04;3.00;;;2.60;;
8423;SDS011;4249;49.072;9.770;2022-11-27T14:02:53;2.97;;;2.10;;
8423;SDS011;4249;49.072;9.770;2022-11-27T14:05:41;2.30;;;2.10;;
8423;SDS011;4249;49.072;9.770;2022-11-27T14:08:30;2.60;;;2.40;;
8423;SDS011;4249;49.072;9.770;2022-11-27T14:11:27;3.43;;;2.07;;
8423;SDS011;4249;49.072;9.770;2022-11-27T14:14:18;2.93;;;2.07;;
8423;SDS011;4249;49.072;9.770;2022-11-27T14:17:21;2.83;;;2.57;;
8423;SDS011;4249;49.072;9.770;2022-11-27T14:20:19;4.63;;;3.43;;
8423;SDS011;4249;49.072;9.770;2022-11-27T14:23:12;2.90;;;2.60;;
8423;SDS011;4249;49.072;9.770;2022-11-27T14:26:06;3.17;;;2.30;;
8423;SDS011;4249;49.072;9.770;2022-11-27T14:29:09;2.80;;;2.27;;
8423;SDS011;4249;49.072;9.770;2022-11-27T14:31:58;2.47;;;2.20;;
8423;SDS011;4249;49.072;9.770;2022-11-27T14:34:48;2.50;;;2.27;;
8423;SDS011;4249;49.072;9.770;2022-11-27T14:37:35;3.50;;;2.83;;
8423;SDS011;4249;49.072;9.770;2022-11-27T14:40:23;2.20;;;2.00;;
8423;SDS011;4249;49.072;9.770;2022-11-27T14:43:13;2.10;;;1.90;;
8423;SDS011;4249;49.072;9.770;2022-11-27T14:46:02;4.00;;;2.23;;
8423;SDS011;4249;49.072;9.770;2022-11-27T14:48:53;4.30;;;2.23;;
8423;SDS011;4249;49.072;9.770;2022-11-27T14:51:43;2.40;;;2.20;;
8423;SDS011;4249;49.072;9.770;2022-11-27T14:54:31;3.20;;;2.17;;
8423;SDS011;4249;49.072;9.770;2022-11-27T14:57:22;3.13;;;2.40;;
8423;SDS011;4249;49.072;9.770;2022-11-27T15:00:14;2.20;;;2.00;;
8423;SDS011;4249;49.072;9.770;2022-11-27T15:03:07;3.20;;;2.30;;
8423;SDS011;4249;49.072;9.770;2022-11-27T15:05:56;3.80;;;2.60;;
8423;SDS011;4249;49.072;9.770;2022-11-27T15:08:45;4.03;;;2.03;;
8423;SDS011;4249;49.072;9.770;2022-11-27T15:11:34;2.73;;;2.30;;
8423;SDS011;4249;49.072;9.770;2022-11-27T15:14:22;2.83;;;2.40;;
8423;SDS011;4249;49.072;9.770;2022-11-27T15:17:13;3.77;;;2.53;;
8423;SDS011;4249;49.072;9.770;2022-11-27T15:20:04;2.60;;;2.40;;
8423;SDS011;4249;49.072;9.770;2022-11-27T15:22:58;2.77;;;2.50;;
8423;SDS011;4249;49.072;9.770;2022-11-27T15:25:47;3.10;;;2.50;;
8423;SDS011;4249;49.072;9.770;2022-11-27T15:28:38;3.60;;;2.87;;
8423;SDS011;4249;49.072;9.770;2022-11-27T15:31:28;3.17;;;2.67;;
8423;SDS011;4249;49.072;9.770;2022-11-27T15:34:21;4.93;;;3.33;;
8423;SDS011;4249;49.072;9.770;2022-11-27T15:37:14;5.90;;;2.87;;
8423;SDS011;4249;49.072;9.770;2022-11-27T15:40:16;3.80;;;2.70;;
8423;SDS011;4249;49.072;9.770;2022-11-27T15:43:19;3.00;;;2.73;;
8423;SDS011;4249;49.072;9.770;2022-11-27T15:46:09;3.57;;;3.27;;
8423;SDS011;4249;49.072;9.770;2022-11-27T15:48:56;4.10;;;3.70;;
8423;SDS011;4249;49.072;9.770;2022-11-27T15:51:44;4.07;;;3.37;;
8423;SDS011;4249;49.072;9.770;2022-11-27T15:54:31;3.80;;;3.40;;
8423;SDS011;4249;49.072;9.770;2022-11-27T15:57:18;4.80;;;3.60;;
8423;SDS011;4249;49.072;9.770;2022-11-27T16:00:08;4.30;;;3.80;;
8423;SDS011;4249;49.072;9.770;2022-11-27T16:02:57;3.93;;;3.50;;
8423;SDS011;4249;49.072;9.770;2022-11-27T16:05:44;4.50;;;3.50;;
8423;SDS011;4249;49.072;9.770;2022-11-27T16:08:31;4.00;;;3.60;;
8423;SDS011;4249;49.072;9.770;2022-11-27T16:11:18;3.80;;;3.40;;
8423;SDS011;4249;49.072;9.770;2022-11-27T16:14:06;4.43;;;3.80;;
8423;SDS011;4249;49.072;9.770;2022-11-27T16:16:54;4.43;;;3.90;;
8423;SDS011;4249;49.072;9.770;2022-11-27T16:19:41;5.60;;;3.80;;
8423;SDS011;4249;49.072;9.770;2022-11-27T16:22:29;5.07;;;3.63;;
8423;SDS011;4249;49.072;9.770;2022-11-27T16:25:16;4.87;;;4.17;;
8423;SDS011;4249;49.072;9.770;2022-11-27T16:28:03;4.63;;;4.07;;
8423;SDS011;4249;49.072;9.770;2022-11-27T16:30:51;4.70;;;4.00;;
8423;SDS011;4249;49.072;9.770;2022-11-27T16:33:40;4.53;;;4.00;;
8423;SDS011;4249;49.072;9.770;2022-11-27T16:36:27;4.60;;;3.80;;
8423;SDS011;4249;49.072;9.770;2022-11-27T16:39:16;4.63;;;4.10;;
8423;SDS011;4249;49.072;9.770;2022-11-27T16:42:03;5.63;;;4.57;;
8423;SDS011;4249;49.072;9.770;2022-11-27T16:44:50;4.63;;;4.23;;
8423;SDS011;4249;49.072;9.770;2022-11-27T16:47:38;5.30;;;4.30;;
8423;SDS011;4249;49.072;9.770;2022-11-27T16:50:26;5.60;;;4.57;;
8423;SDS011;4249;49.072;9.770;2022-11-27T16:53:15;21.87;;;12.20;;
8423;SDS011;4249;49.072;9.770;2022-11-27T16:56:02;12.23;;;8.03;;
8423;SDS011;4249;49.072;9.770;2022-11-27T16:58:50;6.97;;;5.57;;
8423;SDS011;4249;49.072;9.770;2022-11-27T17:01:37;5.50;;;4.80;;
8423;SDS011;4249;49.072;9.770;2022-11-27T17:04:26;7.03;;;5.53;;
8423;SDS011;4249;49.072;9.770;2022-11-27T17:07:16;6.53;;;5.60;;
8423;SDS011;4249;49.072;9.770;2022-11-27T17:10:03;7.83;;;5.73;;
8423;SDS011;4249;49.072;9.770;2022-11-27T17:12:52;5.57;;;4.67;;
8423;SDS011;4249;49.072;9.770;2022-11-27T17:15:40;5.27;;;4.77;;
8423;SDS011;4249;49.072;9.770;2022-11-27T17:18:27;6.57;;;5.60;;
8423;SDS011;4249;49.072;9.770;2022-11-27T17:21:15;6.10;;;4.60;;
8423;SDS011;4249;49.072;9.770;2022-11-27T17:24:08;6.30;;;5.20;;
8423;SDS011;4249;49.072;9.770;2022-11-27T17:26:57;5.70;;;4.93;;
8423;SDS011;4249;49.072;9.770;2022-11-27T17:29:44;6.03;;;5.00;;
8423;SDS011;4249;49.072;9.770;2022-11-27T17:32:31;5.80;;;4.90;;